Time;durP1;ratioP1;P1;durP2;ratioP2;P2;SDS_P1;SDS_P2;PMS_P1;PMS_P2;Temp;Humidity;BMP_temperature;BMP_pressure;BME280_temperature;BME280_humidity;BME280_pressure;Samples;Min_cycle;Max_cycle;Signal;HPM_P1;HPM_P2
2022/03/22 00:01:30;;;;;;;42.67;11.93;;;;;;;0.49;77.55;101445.13;6041446;23;20213;-67
2022/03/22 00:03:56;;;;;;;44.15;11.80;;;;;;;0.46;78.00;101461.19;6017396;23;20038;-69
2022/03/22 00:06:21;;;;;;;43.63;12.50;;;;;;;0.40;77.27;101450.69;6018350;23;20026;-67
2022/03/22 00:08:48;;;;;;;44.90;12.25;;;;;;;0.20;77.86;101438.81;6017889;23;20042;-68
2022/03/22 00:11:15;;;;;;;40.75;11.85;;;;;;;0.27;78.60;101444.00;6017295;23;20063;-69
2022/03/22 00:13:44;;;;;;;37.67;11.70;;;;;;;0.18;79.02;101440.69;6039833;23;20443;-68
2022/03/22 00:16:12;;;;;;;43.15;12.05;;;;;;;0.17;79.42;101436.25;5994175;23;20429;-68
2022/03/22 00:18:39;;;;;;;46.35;12.35;;;;;;;0.16;78.73;101431.84;6017593;23;20041;-70
2022/03/22 00:21:06;;;;;;;38.58;11.48;;;;;;;0.16;79.57;101437.16;6018970;23;20124;-67
2022/03/22 00:23:33;;;;;;;37.35;11.35;;;;;;;0.20;80.75;101437.97;5994658;23;20107;-71
2022/03/22 00:26:00;;;;;;;36.95;11.98;;;;;;;0.19;80.51;101436.22;6041462;23;20508;-70
2022/03/22 00:28:26;;;;;;;39.83;11.20;;;;;;;0.20;80.72;101427.31;6019778;23;20126;-68
2022/03/22 00:30:54;;;;;;;37.22;12.25;;;;;;;0.18;79.69;101432.69;6044134;23;20042;-67
2022/03/22 00:33:20;;;;;;;45.17;12.38;;;;;;;0.05;79.66;101433.06;5972999;23;20026;-71
2022/03/22 00:35:46;;;;;;;40.55;11.57;;;;;;;0.03;79.79;101438.41;6019847;23;20041;-67
2022/03/22 00:38:20;;;;;;;40.40;11.75;;;;;;;-0.08;80.29;101443.13;5971968;23;20094;-68
2022/03/22 00:40:47;;;;;;;44.22;12.20;;;;;;;-0.27;80.65;101414.34;5995248;23;20403;-68
2022/03/22 00:43:14;;;;;;;47.33;11.50;;;;;;;-0.16;81.53;101440.66;5979226;23;20023;-70
2022/03/22 00:45:40;;;;;;;40.25;11.45;;;;;;;-0.17;81.49;101427.44;6042064;23;20033;-68
2022/03/22 00:48:12;;;;;;;33.08;11.07;;;;;;;-0.31;82.06;101420.66;6042522;23;20041;-69
2022/03/22 00:50:43;;;;;;;39.80;12.55;;;;;;;-0.33;82.11;101424.25;5996961;23;20033;-69
2022/03/22 00:53:15;;;;;;;35.67;9.80;;;;;;;-0.11;80.28;101421.94;6042635;23;20019;-68
2022/03/22 00:55:41;;;;;;;32.67;10.70;;;;;;;-0.09;79.44;101404.16;5997203;23;20026;-68
2022/03/22 00:58:08;;;;;;;44.58;12.13;;;;;;;0.00;77.84;101411.91;5996765;23;20026;-69
2022/03/22 01:00:34;;;;;;;37.78;9.95;;;;;;;0.02;77.82;101407.41;5997841;23;20026;-70
2022/03/22 01:03:02;;;;;;;36.60;11.80;;;;;;;-0.02;78.33;101408.41;6020669;23;20030;-69
2022/03/22 01:05:28;;;;;;;45.88;12.27;;;;;;;-0.04;78.25;101407.56;6021966;23;20031;-68
2022/03/22 01:08:02;;;;;;;35.00;11.45;;;;;;;-0.05;77.08;101387.22;6020322;23;20113;-68
2022/03/22 01:10:30;;;;;;;38.22;11.80;;;;;;;-0.04;77.07;101386.31;6043125;23;20528;-69
2022/03/22 01:12:56;;;;;;;32.08;11.13;;;;;;;0.10;76.40;101401.88;6031610;23;20065;-68
2022/03/22 01:15:24;;;;;;;39.10;10.98;;;;;;;0.02;75.91;101398.56;6019117;23;20042;-67
2022/03/22 01:17:55;;;;;;;40.75;11.40;;;;;;;0.11;75.42;101406.28;6018725;23;20026;-68
2022/03/22 01:20:25;;;;;;;30.27;10.57;;;;;;;0.04;75.69;101410.03;6066368;23;20121;-68
2022/03/22 01:22:51;;;;;;;42.78;11.00;;;;;;;-0.01;76.23;101404.84;6020046;23;20022;-68
2022/03/22 01:25:20;;;;;;;26.90;8.38;;;;;;;-0.04;75.33;101402.25;6016513;23;20026;-68
2022/03/22 01:27:47;;;;;;;29.67;10.70;;;;;;;-0.06;75.90;101394.31;5993443;23;20078;-67
2022/03/22 01:30:15;;;;;;;29.33;8.50;;;;;;;0.02;75.08;101401.22;6016204;23;20030;-69
2022/03/22 01:32:42;;;;;;;28.90;8.63;;;;;;;0.08;74.37;101407.25;6040350;23;20102;-68
2022/03/22 01:35:09;;;;;;;25.27;8.73;;;;;;;0.10;73.58;101400.09;5993191;23;20158;-65
2022/03/22 01:37:36;;;;;;;24.65;9.98;;;;;;;0.14;74.12;101412.38;5992511;23;20026;-69
2022/03/22 01:40:03;;;;;;;34.60;10.57;;;;;;;0.09;74.21;101398.34;6039213;23;20110;-67
2022/03/22 01:42:30;;;;;;;29.90;8.38;;;;;;;0.09;74.02;101397.50;6039497;23;20030;-69
2022/03/22 01:44:56;;;;;;;27.55;8.57;;;;;;;0.11;73.31;101401.88;6016214;23;20341;-69
2022/03/22 01:47:25;;;;;;;33.33;9.25;;;;;;;0.07;73.24;101401.97;6016605;23;20102;-68
2022/03/22 01:49:52;;;;;;;27.02;9.10;;;;;;;0.03;73.04;101403.84;6017339;23;20453;-68
2022/03/22 01:52:23;;;;;;;30.20;9.10;;;;;;;-0.03;73.21;101388.94;6015851;23;20480;-66
2022/03/22 01:54:50;;;;;;;26.10;8.98;;;;;;;0.04;72.66;101400.28;6040238;23;20019;-68
2022/03/22 01:57:17;;;;;;;25.00;8.30;;;;;;;0.02;73.42;101395.91;5992785;23;20049;-67
2022/03/22 01:59:44;;;;;;;20.50;6.95;;;;;;;0.06;72.41;101393.13;6040604;23;20031;-69
2022/03/22 02:07:40;;;;;;;26.27;6.93;;;;;;;0.33;70.54;101393.25;6022021;23;20357;-66
2022/03/22 02:10:07;;;;;;;26.42;7.97;;;;;;;0.40;70.02;101386.84;5994151;23;20429;-68
2022/03/22 02:12:33;;;;;;;21.20;6.00;;;;;;;0.45;70.07;101379.63;6016810;23;20205;-68
2022/03/22 02:14:59;;;;;;;28.02;6.82;;;;;;;0.47;69.42;101383.09;6016340;23;20061;-69
2022/03/22 02:17:25;;;;;;;23.88;8.38;;;;;;;0.48;69.22;101384.88;5992750;23;20031;-68
2022/03/22 02:19:51;;;;;;;27.45;8.13;;;;;;;0.32;70.50;101388.88;5992500;23;20038;-68
2022/03/22 02:22:18;;;;;;;25.40;8.52;;;;;;;0.20;70.84;101377.66;6015953;23;20022;-67
2022/03/22 02:24:45;;;;;;;23.63;7.80;;;;;;;0.17;70.77;101380.41;5991980;23;20166;-69
2022/03/22 02:27:11;;;;;;;22.50;7.53;;;;;;;0.12;70.20;101379.66;6039162;23;20018;-68
2022/03/22 02:29:37;;;;;;;21.70;7.63;;;;;;;0.11;71.42;101383.25;6038996;23;20459;-67
2022/03/22 02:32:04;;;;;;;25.52;8.52;;;;;;;0.00;72.26;101377.34;6015322;23;20091;-68
2022/03/22 02:34:30;;;;;;;23.83;8.10;;;;;;;-0.07;72.15;101378.44;6015703;23;20066;-67
2022/03/22 02:36:58;;;;;;;29.08;8.85;;;;;;;-0.19;73.04;101373.44;5991790;23;20031;-67
2022/03/22 02:39:24;;;;;;;23.85;9.18;;;;;;;-0.26;73.16;101372.72;6039152;23;20034;-68
2022/03/22 02:41:51;;;;;;;34.05;9.45;;;;;;;-0.31;73.29;101378.16;6040193;23;20022;-69
2022/03/22 02:44:21;;;;;;;24.30;8.48;;;;;;;-0.39;73.37;101353.56;5992986;23;20106;-68
2022/03/22 02:46:47;;;;;;;30.83;9.50;;;;;;;-0.41;73.82;101355.38;6015923;23;20027;-69
2022/03/22 02:49:13;;;;;;;28.88;9.57;;;;;;;-0.41;73.81;101363.34;6038272;23;20105;-67
2022/03/22 02:51:40;;;;;;;29.10;8.68;;;;;;;-0.45;74.13;101360.81;5991897;23;20512;-68
2022/03/22 02:54:06;;;;;;;23.60;7.72;;;;;;;-0.50;74.14;101366.25;6015237;23;20023;-66
2022/03/22 02:56:33;;;;;;;25.77;8.57;;;;;;;-0.56;74.45;101361.97;6015257;23;20103;-67
2022/03/22 02:59:00;;;;;;;26.42;9.93;;;;;;;-0.62;74.08;101358.56;6038505;23;20019;-69
2022/03/22 03:01:26;;;;;;;28.23;9.00;;;;;;;-0.63;74.50;101354.19;6039493;23;20027;-68
2022/03/22 03:03:52;;;;;;;27.95;8.65;;;;;;;-0.59;74.19;101356.72;5991798;23;20130;-68
2022/03/22 03:06:19;;;;;;;21.13;7.93;;;;;;;-0.57;74.34;101364.66;5992138;23;20114;-68
2022/03/22 03:08:45;;;;;;;24.90;8.07;;;;;;;-0.64;74.78;101363.06;6014676;23;20030;-67
2022/03/22 03:11:12;;;;;;;26.35;9.15;;;;;;;-0.66;74.60;101359.56;6014923;23;20077;-68
2022/03/22 03:16:22;;;;;;;26.05;9.07;;;;;;;-0.68;74.73;101364.06;6018532;23;20493;-68
2022/03/22 03:18:49;;;;;;;27.83;8.48;;;;;;;-0.74;75.31;101357.97;6038413;23;20033;-69
2022/03/22 03:21:15;;;;;;;21.38;8.15;;;;;;;-0.75;75.13;101358.88;6015640;23;20027;-69
2022/03/22 03:23:41;;;;;;;27.58;8.60;;;;;;;-0.78;75.55;101366.06;6014946;23;20117;-67
2022/03/22 03:26:07;;;;;;;25.45;8.35;;;;;;;-0.85;75.83;101349.41;5991805;23;20027;-67
2022/03/22 03:28:33;;;;;;;28.95;9.00;;;;;;;-0.80;75.53;101352.84;5990713;23;20387;-69
2022/03/22 03:30:58;;;;;;;24.25;9.13;;;;;;;-0.83;75.85;101352.91;6015641;23;20476;-70
2022/03/22 03:33:24;;;;;;;24.25;8.65;;;;;;;-0.87;75.97;101345.94;6015486;23;20026;-70
2022/03/22 03:35:50;;;;;;;25.45;9.15;;;;;;;-0.90;75.73;101346.00;6038911;23;20453;-68
2022/03/22 03:38:16;;;;;;;27.60;9.70;;;;;;;-1.03;76.62;101334.78;6014687;23;20327;-69
2022/03/22 03:43:26;;;;;;;26.13;8.70;;;;;;;-0.98;76.81;101337.34;6042062;23;20034;-70
2022/03/22 03:48:37;;;;;;;23.55;8.45;;;;;;;-0.99;77.26;101340.88;6018102;23;20457;-69
2022/03/22 03:51:04;;;;;;;26.90;9.13;;;;;;;-0.98;76.81;101342.66;6015194;23;20027;-67
2022/03/22 03:53:30;;;;;;;23.45;8.55;;;;;;;-0.95;76.64;101347.91;5989705;23;20429;-69
2022/03/22 03:55:56;;;;;;;24.40;8.02;;;;;;;-0.92;76.48;101345.16;6012476;23;20066;-68
2022/03/22 03:58:21;;;;;;;23.85;8.60;;;;;;;-0.91;76.54;101344.25;5989383;23;20145;-71
2022/03/22 04:00:48;;;;;;;24.80;8.20;;;;;;;-0.80;75.63;101339.56;5990095;23;20035;-70
2022/03/22 04:03:14;;;;;;;21.58;8.13;;;;;;;-0.78;75.74;101344.81;6014073;23;20117;-70
2022/03/22 04:05:40;;;;;;;24.08;7.88;;;;;;;-0.79;75.07;101327.16;6015509;23;20023;-70
2022/03/22 04:08:05;;;;;;;26.80;8.40;;;;;;;-0.78;75.57;101328.88;5991538;23;20162;-69
2022/03/22 04:10:34;;;;;;;27.33;9.30;;;;;;;-0.78;75.79;101329.75;6039467;23;20024;-68
2022/03/22 04:13:01;;;;;;;24.92;8.77;;;;;;;-0.83;76.05;101336.97;6016249;23;20085;-68
2022/03/22 04:15:27;;;;;;;26.17;8.98;;;;;;;-0.87;76.58;101326.47;6033873;23;20027;-67
2022/03/22 04:17:53;;;;;;;28.48;8.77;;;;;;;-0.77;75.90;101341.25;6017327;23;20042;-64
2022/03/22 04:20:20;;;;;;;22.20;8.48;;;;;;;-0.71;75.89;101334.94;6014614;23;20026;-66
2022/03/22 04:22:46;;;;;;;23.77;8.18;;;;;;;-0.65;75.33;101333.00;6060778;23;20061;-68
2022/03/22 04:25:12;;;;;;;27.80;7.88;;;;;;;-0.59;75.67;101334.59;6013755;23;20153;-67
2022/03/22 04:33:06;;;;;;;24.10;7.53;;;;;;;-0.37;74.64;101319.84;6038919;23;20022;-69
2022/03/22 04:35:32;;;;;;;19.88;6.93;;;;;;;-0.34;73.08;101318.91;5993371;23;20030;-69
2022/03/22 04:37:58;;;;;;;22.23;7.20;;;;;;;-0.10;72.51;101322.69;5993021;23;20046;-69
2022/03/22 04:40:25;;;;;;;23.02;6.53;;;;;;;-0.11;72.66;101326.25;6038320;23;20132;-68
2022/03/22 04:42:51;;;;;;;31.23;7.70;;;;;;;-0.09;72.37;101335.06;6039019;23;20442;-69
2022/03/22 04:45:17;;;;;;;21.55;7.35;;;;;;;0.02;72.26;101327.66;5968239;23;20029;-68
2022/03/22 04:47:47;;;;;;;24.27;6.60;;;;;;;0.12;71.62;101318.50;6016334;23;20062;-68
2022/03/22 04:50:15;;;;;;;24.80;6.82;;;;;;;0.34;70.12;101323.22;6017909;23;20066;-68
2022/03/22 04:58:10;;;;;;;26.58;6.03;;;;;;;0.79;68.16;101330.72;6019954;23;20122;-68
2022/03/22 05:00:36;;;;;;;23.92;6.35;;;;;;;0.89;67.15;101340.16;5993581;23;20102;-69
2022/03/22 05:03:03;;;;;;;25.70;7.18;;;;;;;0.95;66.58;101342.59;6016839;23;20031;-69
2022/03/22 05:08:14;;;;;;;20.88;6.15;;;;;;;1.23;64.92;101339.06;6019577;23;20090;-69
2022/03/22 05:10:39;;;;;;;16.20;5.80;;;;;;;1.19;64.94;101315.19;5992745;23;20071;-69
2022/03/22 05:13:05;;;;;;;21.33;6.78;;;;;;;1.40;65.13;101328.72;6039954;23;20094;-68
2022/03/22 05:15:32;;;;;;;23.85;6.22;;;;;;;1.50;64.56;101335.50;6016167;23;20031;-68
2022/03/22 05:17:58;;;;;;;23.77;6.50;;;;;;;1.62;64.16;101336.88;5993554;23;20019;-69
2022/03/22 05:20:25;;;;;;;21.98;6.63;;;;;;;1.71;63.54;101328.53;6017200;23;20030;-69
2022/03/22 05:22:51;;;;;;;24.13;6.97;;;;;;;1.84;63.31;101323.66;6016395;23;20031;-68
2022/03/22 05:25:18;;;;;;;22.58;6.55;;;;;;;1.98;62.50;101325.84;6016556;23;20019;-68
2022/03/22 05:27:56;;;;;;;22.95;5.88;;;;;;;2.18;62.52;101324.16;6015699;23;20421;-68
2022/03/22 05:30:22;;;;;;;18.75;5.45;;;;;;;2.34;61.47;101323.59;6016647;23;20089;-69
2022/03/22 05:32:48;;;;;;;26.02;7.93;;;;;;;2.49;61.80;101320.38;6016008;23;20023;-68
2022/03/22 05:35:14;;;;;;;22.13;6.25;;;;;;;2.70;61.92;101320.44;6017731;23;20114;-68
2022/03/22 05:37:40;;;;;;;17.10;5.75;;;;;;;2.84;59.65;101326.13;6015868;23;20034;-68
2022/03/22 05:40:07;;;;;;;15.93;5.47;;;;;;;2.89;59.46;101276.06;5993190;23;20220;-68
2022/03/22 05:42:36;;;;;;;18.63;5.80;;;;;;;3.79;57.05;101324.84;5992882;23;20511;-68
2022/03/22 05:45:03;;;;;;;13.40;5.10;;;;;;;5.57;52.08;101317.31;6040569;23;20466;-69
2022/03/22 05:47:29;;;;;;;18.75;5.80;;;;;;;7.05;48.89;101311.09;6040312;23;20054;-69
2022/03/22 05:49:55;;;;;;;18.08;5.00;;;;;;;8.05;44.51;101311.47;5992375;23;20034;-68
2022/03/22 05:52:21;;;;;;;18.00;5.28;;;;;;;8.88;42.62;101320.59;5992715;23;20031;-69
2022/03/22 05:54:47;;;;;;;15.68;5.93;;;;;;;9.20;41.49;101314.06;6040006;23;20050;-69
2022/03/22 05:57:13;;;;;;;22.50;5.50;;;;;;;9.47;40.78;101314.94;6015812;23;20027;-68
2022/03/22 05:59:38;;;;;;;16.92;5.55;;;;;;;9.88;38.87;101309.41;6015076;23;20430;-69
2022/03/22 06:02:05;;;;;;;18.67;5.45;;;;;;;10.58;37.62;101309.00;5992553;23;20454;-69
2022/03/22 06:04:30;;;;;;;15.27;5.63;;;;;;;11.26;37.35;101312.16;6016238;23;20438;-70
2022/03/22 06:06:56;;;;;;;16.77;5.22;;;;;;;11.78;35.46;101309.06;6016549;23;20094;-69
2022/03/22 06:09:22;;;;;;;18.10;6.00;;;;;;;11.93;36.38;101306.19;5993805;23;20455;-69
2022/03/22 06:11:48;;;;;;;16.85;5.45;;;;;;;12.09;34.01;101306.69;6017341;23;20113;-70
2022/03/22 06:14:14;;;;;;;15.82;5.50;;;;;;;12.50;33.15;101310.69;6017469;23;20031;-70
2022/03/22 06:16:40;;;;;;;19.05;5.57;;;;;;;13.03;32.92;101302.75;5992487;23;20026;-70
2022/03/22 06:19:06;;;;;;;16.35;5.30;;;;;;;13.23;32.47;101304.69;6040103;23;20033;-70
2022/03/22 06:21:32;;;;;;;23.70;5.68;;;;;;;13.82;31.29;101295.22;6016435;23;20043;-69
2022/03/22 06:23:58;;;;;;;20.15;5.57;;;;;;;14.38;30.39;101297.56;5994180;23;20022;-70
2022/03/22 06:26:24;;;;;;;18.05;5.00;;;;;;;14.68;30.08;101293.16;6064632;23;20109;-68
2022/03/22 06:28:50;;;;;;;20.77;5.65;;;;;;;15.10;30.01;101299.31;6016541;23;20029;-70
2022/03/22 06:31:16;;;;;;;17.15;5.35;;;;;;;15.01;29.05;101304.72;5993793;23;20023;-70
2022/03/22 06:33:42;;;;;;;15.02;4.85;;;;;;;15.71;28.33;101275.56;6040207;23;20054;-68
2022/03/22 06:36:08;;;;;;;28.88;5.70;;;;;;;15.42;28.74;101303.63;5992648;23;20015;-68
2022/03/22 06:38:39;;;;;;;24.90;7.47;;;;;;;15.45;28.37;101297.91;5992954;23;20029;-68
2022/03/22 06:41:05;;;;;;;21.80;6.50;;;;;;;16.22;27.70;101297.00;5994664;23;20023;-68
2022/03/22 06:43:31;;;;;;;21.88;6.60;;;;;;;15.68;27.77;101303.97;6017545;23;20018;-69
2022/03/22 06:45:57;;;;;;;23.00;6.53;;;;;;;16.53;27.01;101292.19;6016899;23;20491;-68
2022/03/22 06:48:22;;;;;;;18.85;6.32;;;;;;;16.52;26.51;101287.72;6016560;23;20062;-69
2022/03/22 06:50:49;;;;;;;20.05;6.53;;;;;;;16.45;26.96;101285.72;5992553;23;20019;-67
2022/03/22 06:53:15;;;;;;;24.23;5.90;;;;;;;16.02;27.52;101274.38;6039442;23;20023;-69
2022/03/22 06:55:41;;;;;;;22.58;5.85;;;;;;;16.30;26.81;101288.94;6039819;23;20019;-69
2022/03/22 06:58:08;;;;;;;23.58;5.40;;;;;;;15.90;27.18;101275.53;6039406;23;20038;-69
2022/03/22 07:00:34;;;;;;;15.75;5.30;;;;;;;16.99;26.48;101276.72;6016133;23;20023;-69
2022/03/22 07:03:02;;;;;;;17.73;5.90;;;;;;;16.72;25.72;101277.59;6039244;23;20075;-69
2022/03/22 07:05:28;;;;;;;19.48;5.90;;;;;;;17.77;25.42;101271.59;5992369;23;20321;-69
2022/03/22 07:07:56;;;;;;;29.60;5.82;;;;;;;17.05;25.70;101254.28;5991778;23;20030;-69
2022/03/22 07:10:22;;;;;;;16.75;5.32;;;;;;;17.25;25.76;101252.25;6015572;23;20106;-70
2022/03/22 07:12:55;;;;;;;16.85;4.57;;;;;;;17.12;26.40;101232.66;5992062;23;20472;-69
2022/03/22 07:15:33;;;;;;;13.85;4.93;;;;;;;17.05;27.24;101251.53;5991979;23;20026;-65
2022/03/22 07:18:00;;;;;;;22.25;5.40;;;;;;;18.51;24.70;101247.44;5991753;23;20034;-69
2022/03/22 07:20:27;;;;;;;21.60;4.85;;;;;;;17.43;25.22;101255.00;6014869;23;20034;-69
2022/03/22 07:22:53;;;;;;;23.98;5.75;;;;;;;18.05;25.20;101244.06;5991059;23;20085;-69
2022/03/22 07:25:19;;;;;;;59.88;8.57;;;;;;;18.72;23.11;101241.53;6014946;23;20425;-68
2022/03/22 07:27:45;;;;;;;13.60;5.35;;;;;;;17.77;24.46;101240.59;6014498;23;20106;-67
2022/03/22 07:30:11;;;;;;;29.67;5.95;;;;;;;18.39;24.19;101235.91;5992009;23;20026;-67
2022/03/22 07:32:38;;;;;;;20.50;5.47;;;;;;;18.32;23.85;101240.31;5991506;23;20035;-69
2022/03/22 07:35:05;;;;;;;16.38;5.60;;;;;;;20.30;22.20;101226.75;6014852;23;20027;-69
2022/03/22 07:37:30;;;;;;;16.23;5.00;;;;;;;20.79;21.18;101249.44;6038677;23;20026;-67
2022/03/22 07:39:57;;;;;;;26.65;5.50;;;;;;;20.86;22.06;101255.91;6040077;23;20061;-69
2022/03/22 07:42:29;;;;;;;33.95;5.88;;;;;;;21.66;20.89;101252.00;5993288;23;20078;-69
2022/03/22 07:45:01;;;;;;;197.88;16.23;;;;;;;21.29;20.71;101248.13;6016708;23;20019;-71
2022/03/22 07:47:29;;;;;;;38.47;5.75;;;;;;;20.71;21.82;101252.22;6040112;23;20082;-70
2022/03/22 07:52:58;;;;;;;18.00;4.72;;;;;;;21.67;19.74;101248.22;6045320;23;20413;-70
2022/03/22 07:55:24;;;;;;;17.45;5.63;;;;;;;21.17;20.78;101247.69;5996705;23;20418;-69
2022/03/22 07:57:50;;;;;;;18.65;4.53;;;;;;;21.71;20.02;101255.06;6066381;23;20038;-68
2022/03/22 08:00:18;;;;;;;15.48;4.55;;;;;;;21.68;19.41;101249.91;6016589;23;20027;-70
2022/03/22 08:03:04;;;;;;;15.15;5.22;;;;;;;23.62;18.64;101238.63;6016931;23;20054;-70
2022/03/22 08:05:31;;;;;;;19.13;4.50;;;;;;;23.32;18.59;101238.72;5993310;23;20030;-68
2022/03/22 08:07:59;;;;;;;13.90;4.25;;;;;;;22.78;17.77;101246.53;6040078;23;20496;-67
2022/03/22 08:10:26;;;;;;;14.75;4.25;;;;;;;23.56;17.82;101244.94;5993406;23;20363;-70
2022/03/22 08:12:53;;;;;;;18.42;4.18;;;;;;;22.71;17.24;101240.97;6016619;23;20126;-70
2022/03/22 08:15:18;;;;;;;31.85;4.93;;;;;;;23.00;20.73;101245.59;5992273;23;20469;-70
2022/03/22 08:17:45;;;;;;;13.38;3.78;;;;;;;24.40;15.97;101245.03;6040406;23;20027;-71
2022/03/22 08:20:12;;;;;;;18.77;4.20;;;;;;;24.30;19.28;101241.72;6016543;23;20117;-70
2022/03/22 08:22:52;;;;;;;18.83;3.65;;;;;;;25.30;14.84;101231.16;6016741;23;20465;-69
2022/03/22 08:25:32;;;;;;;17.83;3.65;;;;;;;24.34;15.39;101225.59;6040040;23;20022;-71
2022/03/22 08:28:00;;;;;;;26.77;4.25;;;;;;;24.94;16.85;101227.66;6040728;23;20022;-70
2022/03/22 08:30:27;;;;;;;20.98;3.53;;;;;;;24.37;17.73;101211.38;6017239;23;20049;-71
2022/03/22 08:32:54;;;;;;;43.63;5.68;;;;;;;25.42;15.28;101221.22;6016983;23;20097;-68
2022/03/22 08:35:23;;;;;;;13.43;3.28;;;;;;;25.44;13.77;101199.69;6066409;23;20508;-69
2022/03/22 08:37:49;;;;;;;15.52;3.20;;;;;;;26.15;12.14;101207.38;5993968;23;20027;-69
2022/03/22 08:40:16;;;;;;;15.93;3.42;;;;;;;26.02;13.88;101212.94;6040802;23;20103;-71
2022/03/22 08:42:46;;;;;;;12.68;3.47;;;;;;;25.78;12.42;101201.41;6016471;23;20023;-71
2022/03/22 08:45:14;;;;;;;17.50;3.22;;;;;;;25.39;12.30;101214.16;5992939;23;20023;-72
2022/03/22 08:47:42;;;;;;;12.55;3.28;;;;;;;24.46;13.21;101190.81;6016393;23;20046;-71
2022/03/22 08:50:10;;;;;;;18.17;4.22;;;;;;;24.87;15.46;101203.78;5992842;23;20469;-70
2022/03/22 08:52:40;;;;;;;17.20;3.28;;;;;;;25.26;13.81;101197.50;6040052;23;20030;-67
2022/03/22 08:55:08;;;;;;;13.43;3.60;;;;;;;24.65;14.02;101194.75;6039776;23;20058;-70
2022/03/22 08:57:35;;;;;;;14.27;4.20;;;;;;;24.83;13.89;101177.56;6016329;23;20461;-71
2022/03/22 09:00:05;;;;;;;17.08;4.88;;;;;;;25.32;13.87;101163.47;5992979;23;20030;-71
2022/03/22 09:02:31;;;;;;;36.72;5.28;;;;;;;24.71;15.24;101160.72;5993761;23;20015;-69
2022/03/22 09:07:42;;;;;;;18.00;4.10;;;;;;;23.97;15.07;101150.31;6019687;23;20030;-70
2022/03/22 09:10:08;;;;;;;9.15;2.92;;;;;;;23.34;15.78;101153.00;6016564;23;20034;-70
2022/03/22 09:12:35;;;;;;;8.90;2.65;;;;;;;23.99;17.34;101162.03;6039643;23;20023;-69
2022/03/22 09:15:01;;;;;;;12.88;2.75;;;;;;;23.88;15.85;101154.28;6040035;23;20019;-72
2022/03/22 09:17:27;;;;;;;12.73;2.63;;;;;;;23.30;15.70;101152.53;6041215;23;20022;-71
2022/03/22 09:19:53;;;;;;;19.52;3.22;;;;;;;24.01;15.96;101144.19;6040038;23;20037;-69
2022/03/22 09:22:20;;;;;;;14.40;3.53;;;;;;;23.87;16.44;101130.50;5992727;23;20058;-70
2022/03/22 09:24:45;;;;;;;14.35;3.20;;;;;;;23.42;15.67;101132.69;6039475;23;20560;-70
2022/03/22 09:27:11;;;;;;;17.25;3.80;;;;;;;24.46;15.94;101124.47;5992454;23;20034;-70
2022/03/22 09:29:37;;;;;;;8.95;2.80;;;;;;;25.16;16.13;101130.66;6016244;23;20034;-70
2022/03/22 09:32:03;;;;;;;17.48;3.35;;;;;;;25.17;17.28;101138.75;6015942;23;20638;-69
2022/03/22 09:34:32;;;;;;;11.38;2.83;;;;;;;26.04;17.50;101133.19;6039617;23;20046;-70
2022/03/22 09:37:00;;;;;;;14.30;2.85;;;;;;;25.80;16.12;101132.81;5992653;23;20410;-71
2022/03/22 09:39:25;;;;;;;13.07;2.95;;;;;;;26.13;14.00;101121.66;6015898;23;20118;-71
2022/03/22 09:41:52;;;;;;;12.02;2.92;;;;;;;26.12;14.59;101117.19;6016359;23;20026;-69
2022/03/22 09:44:19;;;;;;;10.85;2.97;;;;;;;25.94;14.73;101122.56;6064129;23;20030;-71
2022/03/22 09:46:49;;;;;;;10.52;2.60;;;;;;;26.50;14.34;101116.41;6040296;23;20454;-69
2022/03/22 09:49:16;;;;;;;16.38;3.55;;;;;;;27.07;14.65;101124.84;6040471;23;20466;-71
2022/03/22 09:51:48;;;;;;;10.02;2.58;;;;;;;25.63;15.09;101115.75;6016349;23;20025;-71
2022/03/22 09:54:19;;;;;;;13.55;2.80;;;;;;;26.42;13.98;101108.31;6016816;23;20109;-70
2022/03/22 09:56:46;;;;;;;12.50;3.13;;;;;;;26.78;15.22;101118.00;6016177;23;20041;-71
2022/03/22 09:59:14;;;;;;;14.55;3.13;;;;;;;26.24;14.44;101106.25;6040276;23;20027;-71
2022/03/22 10:01:41;;;;;;;11.93;2.65;;;;;;;26.36;12.93;101100.88;6017427;23;20109;-70
2022/03/22 10:04:13;;;;;;;16.08;3.53;;;;;;;25.43;13.09;101093.59;5993754;23;20026;-71
2022/03/22 10:07:02;;;;;;;29.15;3.45;;;;;;;25.03;13.57;101109.31;6016896;23;20030;-71
2022/03/22 10:09:40;;;;;;;13.00;3.35;;;;;;;26.02;13.98;101099.28;6017387;23;20074;-70
2022/03/22 10:12:08;;;;;;;11.73;2.53;;;;;;;25.02;12.67;101108.47;6040620;23;20018;-72
2022/03/22 10:14:38;;;;;;;23.73;3.15;;;;;;;24.91;15.04;101094.41;6016720;23;20173;-70
2022/03/22 10:17:15;;;;;;;18.02;3.65;;;;;;;25.81;12.41;101101.25;5993838;23;20117;-71
2022/03/22 10:19:44;;;;;;;15.93;2.35;;;;;;;25.55;12.51;101107.66;5993899;23;20057;-71
2022/03/22 10:22:10;;;;;;;13.63;2.50;;;;;;;26.11;12.08;101095.22;6064499;23;20094;-71
2022/03/22 10:24:48;;;;;;;17.17;3.20;;;;;;;26.42;11.73;101102.78;5993185;23;20047;-71
2022/03/22 10:27:26;;;;;;;12.27;2.55;;;;;;;26.52;11.47;101097.66;6017455;23;20115;-71
2022/03/22 10:29:52;;;;;;;11.48;2.22;;;;;;;26.73;12.90;101104.78;6017516;23;20027;-71
2022/03/22 10:32:38;;;;;;;9.40;2.50;;;;;;;26.07;12.43;101100.38;6016831;23;20453;-71
2022/03/22 10:35:23;;;;;;;17.20;2.30;;;;;;;25.21;11.93;101083.81;6017325;23;20449;-72
2022/03/22 10:37:53;;;;;;;8.43;2.20;;;;;;;25.73;11.48;101094.00;6065452;23;20302;-72
2022/03/22 10:40:28;;;;;;;30.73;2.85;;;;;;;23.76;12.78;101080.28;6041477;23;20030;-72
2022/03/22 10:42:58;;;;;;;8.82;2.13;;;;;;;25.09;12.15;101079.94;6041510;23;20046;-71
2022/03/22 10:45:48;;;;;;;11.60;2.05;;;;;;;23.96;11.76;101074.88;5994282;23;20027;-71
2022/03/22 10:48:25;;;;;;;10.80;2.55;;;;;;;25.28;11.86;101067.22;6017069;23;20061;-72
2022/03/22 10:50:51;;;;;;;8.32;1.92;;;;;;;24.66;11.21;101075.63;6018046;23;20081;-72
2022/03/22 10:53:20;;;;;;;10.70;2.08;;;;;;;24.74;11.71;101072.66;5994280;23;20023;-71
2022/03/22 10:55:46;;;;;;;;;;;;;;;24.72;12.31;101074.78;6040062;23;20054;-72
2022/03/22 10:58:21;;;;;;;8.38;1.85;;;;;;;25.31;11.22;101072.31;6041779;23;19981;-71
2022/03/22 11:00:49;;;;;;;7.55;2.00;;;;;;;25.70;11.76;101050.09;6042386;23;20465;-72
2022/03/22 11:03:17;;;;;;;10.38;1.85;;;;;;;25.57;10.66;101058.44;5994252;23;20090;-71
2022/03/22 11:05:51;;;;;;;8.13;2.10;;;;;;;24.87;11.29;101065.47;5993535;23;20377;-72
2022/03/22 11:08:21;;;;;;;12.73;1.98;;;;;;;25.55;10.89;101046.72;6017346;23;20343;-72
2022/03/22 11:10:48;;;;;;;10.30;1.90;;;;;;;25.65;11.20;101062.91;6016095;23;20100;-72
2022/03/22 11:13:14;;;;;;;11.20;1.98;;;;;;;25.37;10.73;101054.84;5992329;23;20026;-72
2022/03/22 11:15:44;;;;;;;11.50;2.15;;;;;;;24.92;10.79;101057.38;6015925;23;20023;-71
2022/03/22 11:18:14;;;;;;;8.52;1.98;;;;;;;24.97;10.62;101054.81;6016460;23;20118;-69
2022/03/22 11:21:00;;;;;;;19.33;2.75;;;;;;;24.68;11.99;101047.72;6016059;23;20054;-70
2022/03/22 11:23:28;;;;;;;10.73;2.25;;;;;;;24.13;12.70;101042.22;5992657;23;20101;-72
2022/03/22 11:25:54;;;;;;;;;;;;;;;23.86;11.70;101040.41;5994522;23;20106;-71
2022/03/22 11:28:23;;;;;;;10.18;2.03;;;;;;;24.07;11.46;101048.59;6018648;23;19921;-71
2022/03/22 11:30:50;;;;;;;8.60;1.98;;;;;;;24.15;11.95;101042.88;5994708;23;20035;-71
2022/03/22 11:36:20;;;;;;;7.30;2.08;;;;;;;23.78;11.88;101033.16;6019406;23;20054;-71
2022/03/22 11:38:49;;;;;;;14.50;2.13;;;;;;;23.19;11.71;101037.19;5992098;23;20026;-70
2022/03/22 11:44:20;;;;;;;10.10;1.83;;;;;;;23.27;12.29;101031.50;6016515;23;20034;-71
2022/03/22 11:46:48;;;;;;;11.90;1.92;;;;;;;24.08;12.47;101036.47;6040553;23;20022;-72
2022/03/22 11:49:22;;;;;;;5.72;2.03;;;;;;;23.35;11.86;101024.97;6012757;23;20031;-71
2022/03/22 11:51:54;;;;;;;7.63;1.60;;;;;;;23.20;12.17;101025.06;6017656;23;20034;-72
2022/03/22 11:54:21;;;;;;;10.00;2.28;;;;;;;22.88;12.58;101038.34;6041567;23;20029;-70
2022/03/22 11:56:49;;;;;;;8.38;1.98;;;;;;;23.38;12.81;101020.97;6015626;23;20114;-72
2022/03/22 11:59:16;;;;;;;7.25;1.52;;;;;;;23.29;12.63;101026.66;6038506;23;20109;-71
2022/03/22 12:01:55;;;;;;;8.80;1.80;;;;;;;24.15;12.07;101023.53;6038286;23;20037;-71